Time;durP1;ratioP1;P1;durP2;ratioP2;P2;SDS_P1;SDS_P2;PMS_P1;PMS_P2;Temp;Humidity;BMP_temperature;BMP_pressure;BME280_temperature;BME280_humidity;BME280_pressure;Samples;Min_cycle;Max_cycle;Signal;HPM_P1;HPM_P2
2022/09/17 00:00:38;;;;;;;4.43;1.45;;;;;;;19.34;56.11;93063.84;5054710;28;20496;-80
2022/09/17 00:03:03;;;;;;;3.35;1.15;;;;;;;19.43;56.36;93066.91;5049247;28;20496;-81
2022/09/17 00:05:28;;;;;;;2.90;1.50;;;;;;;19.22;56.28;93027.25;5048472;28;20032;-80
2022/09/17 00:07:54;;;;;;;6.63;1.95;;;;;;;19.24;56.12;93041.13;5048117;28;20021;-80
2022/09/17 00:10:20;;;;;;;3.53;1.42;;;;;;;19.42;56.13;93048.41;5048246;28;20786;-80
2022/09/17 00:12:46;;;;;;;4.53;1.77;;;;;;;19.45;56.15;93061.94;5048560;28;20036;-80
2022/09/17 00:15:12;;;;;;;4.68;1.33;;;;;;;19.40;56.22;93048.81;5043865;28;20399;-81
2022/09/17 00:17:38;;;;;;;5.40;1.42;;;;;;;19.40;56.20;93032.66;5047243;28;20023;-80
2022/09/17 00:20:06;;;;;;;2.58;1.48;;;;;;;19.48;56.31;93044.22;5045131;28;20024;-80
2022/09/17 00:22:32;;;;;;;5.22;1.70;;;;;;;19.37;56.44;93019.91;5048288;28;20024;-80
2022/09/17 00:24:57;;;;;;;3.55;1.73;;;;;;;19.30;56.14;93009.16;5049714;28;20028;-80
2022/09/17 00:27:23;;;;;;;3.38;1.60;;;;;;;19.42;56.39;93038.41;5048591;28;20035;-81
2022/09/17 00:29:48;;;;;;;1.63;1.23;;;;;;;19.30;56.29;93011.84;5047965;28;20098;-79
2022/09/17 00:32:13;;;;;;;2.83;1.40;;;;;;;19.47;56.38;93038.03;5051410;28;20024;-79
2022/09/17 00:34:39;;;;;;;3.25;1.50;;;;;;;19.21;56.29;92998.00;5045768;28;20028;-81
2022/09/17 00:37:04;;;;;;;4.35;1.50;;;;;;;19.30;56.79;93044.22;5050007;28;20645;-80
2022/09/17 00:39:30;;;;;;;8.43;2.85;;;;;;;19.31;56.56;93046.50;5046520;28;20419;-80
2022/09/17 00:41:55;;;;;;;2.13;1.70;;;;;;;19.41;56.60;93044.22;5048149;28;20028;-80
2022/09/17 00:44:45;;;;;;;4.22;1.75;;;;;;;19.45;56.66;93053.84;5049510;28;20060;-81
2022/09/17 00:47:13;;;;;;;4.85;1.65;;;;;;;19.25;56.85;93023.81;5048761;28;20029;-79
2022/09/17 00:49:38;;;;;;;3.50;1.38;;;;;;;19.36;56.88;93053.44;5049994;28;20021;-81
2022/09/17 00:52:09;;;;;;;3.30;1.88;;;;;;;19.42;56.85;93040.34;5047201;28;20016;-80
2022/09/17 00:54:38;;;;;;;5.07;1.88;;;;;;;19.30;56.96;93052.28;5049570;28;20027;-81
2022/09/17 00:57:03;;;;;;;2.67;1.90;;;;;;;19.28;56.73;93033.03;5050804;28;20025;-79
2022/09/17 00:59:29;;;;;;;4.32;2.10;;;;;;;19.11;56.81;93031.13;5046962;28;20533;-80
2022/09/17 01:01:55;;;;;;;7.05;2.55;;;;;;;19.32;56.94;93063.44;5046157;28;20056;-80
2022/09/17 01:04:24;;;;;;;4.93;2.22;;;;;;;19.17;57.21;93043.81;5049642;28;20466;-80
2022/09/17 01:06:56;;;;;;;3.83;2.30;;;;;;;19.21;57.34;93041.13;5047284;28;21028;-80
2022/09/17 01:09:42;;;;;;;5.88;2.00;;;;;;;19.26;57.62;93063.06;5049056;28;20551;-80
2022/09/17 01:12:51;;;;;;;5.82;2.63;;;;;;;19.31;57.75;93067.31;5055958;28;20028;-80
2022/09/17 01:15:39;;;;;;;2.45;1.73;;;;;;;19.25;57.58;93039.97;5053919;28;20029;-80
2022/09/17 01:18:05;;;;;;;3.20;2.17;;;;;;;19.21;58.06;93041.13;5047926;28;20025;-80
2022/09/17 01:20:59;;;;;;;3.38;1.85;;;;;;;18.91;58.02;92993.00;5047892;28;20055;-80
2022/09/17 01:23:43;;;;;;;2.70;1.95;;;;;;;19.26;57.97;93043.44;5052921;28;20507;-80
2022/09/17 01:26:17;;;;;;;6.47;2.10;;;;;;;19.23;58.03;93034.19;5045592;28;20029;-81
2022/09/17 01:28:53;;;;;;;6.38;2.17;;;;;;;19.09;57.78;93012.63;5047873;28;20029;-81
2022/09/17 01:31:38;;;;;;;3.45;1.70;;;;;;;19.16;58.30;93049.59;5046612;28;20060;-80
2022/09/17 01:34:27;;;;;;;3.45;1.52;;;;;;;19.16;58.42;93041.53;5048280;28;20028;-81
2022/09/17 01:37:11;;;;;;;2.83;1.80;;;;;;;19.24;58.30;93041.13;5047787;28;20040;-79
2022/09/17 01:39:55;;;;;;;3.08;2.05;;;;;;;19.24;58.16;93037.66;5062976;28;20028;-80
2022/09/17 01:42:34;;;;;;;3.63;2.33;;;;;;;19.14;58.38;93016.88;5054630;28;20028;-80
2022/09/17 01:45:05;;;;;;;4.00;1.90;;;;;;;19.29;58.34;93031.88;5044388;28;20064;-81
2022/09/17 01:47:34;;;;;;;5.20;2.30;;;;;;;18.94;58.45;92940.28;5047939;28;20028;-80
2022/09/17 01:50:06;;;;;;;4.43;2.63;;;;;;;19.07;58.23;92925.22;5050440;28;20029;-81
2022/09/17 01:52:36;;;;;;;3.25;2.35;;;;;;;19.02;58.62;92936.44;5047117;28;20028;-80
2022/09/17 01:55:08;;;;;;;5.75;2.58;;;;;;;19.11;58.59;92961.06;5051936;28;20020;-80
2022/09/17 01:57:52;;;;;;;6.95;3.55;;;;;;;19.05;59.75;93033.44;5053455;28;20020;-80
2022/09/17 02:00:19;;;;;;;3.22;2.65;;;;;;;18.51;61.90;93057.94;5053229;28;20063;-79
2022/09/17 02:02:54;;;;;;;5.35;3.03;;;;;;;18.04;63.65;93016.63;5050271;28;20115;-80
2022/09/17 02:05:35;;;;;;;8.30;3.53;;;;;;;18.12;64.50;93018.22;5050602;28;20020;-79
2022/09/17 02:08:17;;;;;;;6.10;3.17;;;;;;;18.08;64.30;92992.44;5050111;28;20064;-79
2022/09/17 02:10:58;;;;;;;4.50;2.50;;;;;;;18.06;63.86;92947.09;5052412;28;20111;-80
2022/09/17 02:13:33;;;;;;;5.00;3.15;;;;;;;18.54;63.32;92989.84;5067632;28;20135;-80
2022/09/17 02:16:09;;;;;;;4.85;2.67;;;;;;;18.53;63.17;92943.31;5050165;28;20036;-80
2022/09/17 02:18:49;;;;;;;4.88;2.67;;;;;;;18.39;62.67;92878.69;5052246;28;20474;-81
2022/09/17 02:21:25;;;;;;;3.80;2.58;;;;;;;18.70;62.10;92899.50;5053154;28;20056;-80
2022/09/17 02:24:08;;;;;;;5.05;2.33;;;;;;;18.68;60.98;92872.16;5050504;28;20025;-80
2022/09/17 02:26:41;;;;;;;6.97;3.22;;;;;;;18.68;61.61;92877.53;5052929;28;20029;-81
2022/09/17 02:29:12;;;;;;;4.32;2.65;;;;;;;18.67;61.77;92857.16;5048680;28;20048;-80
2022/09/17 02:31:39;;;;;;;5.07;2.85;;;;;;;18.44;60.72;92860.25;5053057;28;20020;-80
2022/09/17 02:34:06;;;;;;;3.88;2.00;;;;;;;18.27;60.23;92822.56;5051864;28;20020;-81
2022/09/17 02:36:31;;;;;;;5.45;2.97;;;;;;;18.47;61.56;92869.47;5051059;28;20043;-80
2022/09/17 02:39:00;;;;;;;4.28;2.55;;;;;;;18.54;62.57;92901.00;5049210;28;20493;-81
2022/09/17 02:41:43;;;;;;;5.75;3.47;;;;;;;18.16;63.98;92938.25;5050070;28;20508;-81
2022/09/17 02:44:19;;;;;;;6.32;3.22;;;;;;;17.73;65.34;92912.38;5057557;28;20052;-80
2022/09/17 02:47:01;;;;;;;6.25;2.97;;;;;;;17.94;65.82;92950.88;5057608;28;20017;-79
2022/09/17 02:50:16;;;;;;;5.13;2.60;;;;;;;18.15;65.69;92947.47;5049494;28;20043;-79
2022/09/17 02:52:57;;;;;;;5.45;3.55;;;;;;;17.68;65.27;92865.13;4998833;28;20169;-79
2022/09/17 02:55:49;;;;;;;6.20;3.88;;;;;;;18.31;64.49;92936.38;5050042;28;20037;-81
2022/09/17 02:58:31;;;;;;;4.20;3.33;;;;;;;18.37;63.98;92934.84;5052423;28;20035;-80
2022/09/17 03:01:02;;;;;;;6.82;3.55;;;;;;;18.11;64.21;92857.16;5051141;28;20035;-80
2022/09/17 03:03:35;;;;;;;5.97;3.88;;;;;;;18.54;62.92;92896.38;5048678;28;20024;-81
2022/09/17 03:06:01;;;;;;;5.15;4.07;;;;;;;18.42;63.23;92867.16;5050098;28;20101;-80
2022/09/17 03:08:31;;;;;;;7.05;4.30;;;;;;;18.57;63.09;92865.25;5057215;28;20039;-80
2022/09/17 03:10:56;;;;;;;8.70;4.28;;;;;;;18.63;62.85;92866.38;5049017;28;20105;-80
2022/09/17 03:13:22;;;;;;;9.13;3.35;;;;;;;18.17;62.96;92828.72;5050463;28;20029;-81
2022/09/17 03:15:47;;;;;;;5.65;3.67;;;;;;;18.32;62.61;92841.03;5050451;28;20021;-80
2022/09/17 03:18:13;;;;;;;8.10;3.92;;;;;;;18.55;62.30;92881.78;5048746;28;20016;-80
2022/09/17 03:20:38;;;;;;;4.15;3.38;;;;;;;18.46;62.81;92921.78;5049159;28;20056;-80
2022/09/17 03:23:04;;;;;;;6.45;3.25;;;;;;;18.65;62.59;92928.72;5050190;28;20028;-81
2022/09/17 03:25:29;;;;;;;8.18;3.20;;;;;;;18.24;62.88;92863.69;5049745;28;20495;-80
2022/09/17 03:27:54;;;;;;;5.35;3.17;;;;;;;18.62;62.78;92914.09;5051190;28;20032;-79
2022/09/17 03:30:20;;;;;;;8.25;3.05;;;;;;;18.30;62.84;92867.53;5051416;28;20167;-81
2022/09/17 03:32:45;;;;;;;3.90;2.35;;;;;;;18.65;62.52;92891.78;5049960;28;20488;-80
2022/09/17 03:35:11;;;;;;;8.45;2.10;;;;;;;18.40;62.25;92869.47;5050925;28;20029;-80
2022/09/17 03:37:36;;;;;;;4.30;2.53;;;;;;;18.53;62.14;92851.75;5050788;28;20056;-80
2022/09/17 03:40:03;;;;;;;3.33;2.03;;;;;;;18.69;61.35;92859.44;5047937;28;20112;-81
2022/09/17 03:42:28;;;;;;;7.43;1.88;;;;;;;18.79;61.01;92862.16;5052056;28;20048;-80
2022/09/17 03:44:53;;;;;;;5.75;1.67;;;;;;;18.73;60.86;92876.41;5048109;28;20116;-80
2022/09/17 03:47:19;;;;;;;3.35;2.00;;;;;;;18.82;60.12;92856.00;5050218;28;20415;-80
2022/09/17 03:49:44;;;;;;;5.68;2.08;;;;;;;18.87;60.45;92862.94;5049241;28;20027;-80
2022/09/17 03:52:09;;;;;;;3.78;2.00;;;;;;;18.82;60.29;92837.13;5049695;28;20508;-81
2022/09/17 03:54:35;;;;;;;1.23;1.08;;;;;;;18.69;60.08;92806.38;5048974;28;20031;-79
2022/09/17 03:57:00;;;;;;;4.85;1.90;;;;;;;18.95;60.04;92845.59;5049055;28;20048;-79
2022/09/17 03:59:26;;;;;;;4.70;1.40;;;;;;;19.15;59.83;92875.56;5049807;28;20051;-80
2022/09/17 04:01:51;;;;;;;3.28;1.33;;;;;;;19.19;59.36;92885.19;5050373;28;20036;-80
2022/09/17 04:04:16;;;;;;;4.38;1.52;;;;;;;18.96;59.64;92852.53;5049088;28;20029;-80
2022/09/17 04:06:42;;;;;;;4.57;2.08;;;;;;;19.28;58.99;92911.72;5050644;28;20032;-80
2022/09/17 04:09:07;;;;;;;3.67;1.95;;;;;;;19.24;59.35;92894.78;5047152;28;20044;-80
2022/09/17 04:11:33;;;;;;;5.45;2.13;;;;;;;19.14;59.91;92896.38;5049850;28;20027;-80
2022/09/17 04:13:58;;;;;;;5.50;1.75;;;;;;;19.14;59.54;92879.41;5048403;28;20112;-80
2022/09/17 04:16:24;;;;;;;3.10;1.65;;;;;;;19.10;59.72;92886.75;5051332;28;20021;-80
2022/09/17 04:18:49;;;;;;;3.75;1.48;;;;;;;19.03;59.77;92887.53;5049131;28;20027;-80
2022/09/17 04:21:15;;;;;;;1.42;1.30;;;;;;;19.28;59.64;92936.75;5050348;28;20419;-80
2022/09/17 04:23:40;;;;;;;2.65;1.50;;;;;;;19.32;59.52;92934.81;5054812;28;20111;-80
2022/09/17 04:26:06;;;;;;;4.07;1.38;;;;;;;19.23;60.17;92963.34;5047570;28;20016;-80
2022/09/17 04:28:31;;;;;;;3.53;1.20;;;;;;;19.27;60.28;92977.56;5049847;28;20028;-81
2022/09/17 04:30:57;;;;;;;3.45;1.33;;;;;;;19.14;60.11;92954.88;5047184;28;20021;-80
2022/09/17 04:33:22;;;;;;;3.38;1.75;;;;;;;19.45;60.20;93004.56;5050239;28;20791;-79
2022/09/17 04:35:48;;;;;;;2.83;2.17;;;;;;;19.35;60.32;92992.59;5050207;28;20031;-80
2022/09/17 04:38:17;;;;;;;2.30;1.60;;;;;;;19.16;60.45;92974.13;5048102;28;20490;-80
2022/09/17 04:40:43;;;;;;;3.65;1.80;;;;;;;19.08;60.50;92959.88;5049665;28;20400;-80
2022/09/17 04:43:09;;;;;;;3.05;1.73;;;;;;;19.27;60.77;92996.44;5047814;28;20806;-79
2022/09/17 04:45:34;;;;;;;3.55;1.55;;;;;;;19.27;61.42;93002.59;5049019;28;20025;-80
2022/09/17 04:48:00;;;;;;;15.35;9.50;;;;;;;19.23;62.21;93009.16;5047966;28;20123;-80
2022/09/17 04:50:26;;;;;;;18.90;9.73;;;;;;;19.09;61.95;92984.91;5049407;28;20502;-81
2022/09/17 04:52:51;;;;;;;6.30;2.22;;;;;;;18.98;61.18;93028.03;5047256;28;20481;-80
2022/09/17 04:55:16;;;;;;;2.28;1.70;;;;;;;18.76;61.25;93007.63;5048678;28;20103;-80
2022/09/17 04:57:47;;;;;;;3.55;1.10;;;;;;;18.32;61.72;92999.81;5048855;28;20381;-80
2022/09/17 05:00:13;;;;;;;2.97;1.20;;;;;;;18.35;62.20;93012.50;5049471;28;20089;-80
2022/09/17 05:02:38;;;;;;;6.18;2.00;;;;;;;18.39;62.79;93015.97;5051774;28;20052;-80
2022/09/17 05:05:04;;;;;;;4.55;1.30;;;;;;;18.15;64.00;92987.84;5047232;28;20115;-79
2022/09/17 05:07:29;;;;;;;8.13;1.33;;;;;;;18.02;65.07;92976.66;5048759;28;20036;-79
2022/09/17 05:09:54;;;;;;;6.78;1.30;;;;;;;17.89;65.61;92980.81;5046686;28;20051;-80
2022/09/17 05:12:20;;;;;;;4.32;1.48;;;;;;;17.90;66.68;92987.72;5049349;28;20052;-80
2022/09/17 05:14:45;;;;;;;2.88;1.13;;;;;;;18.00;67.26;93008.56;5049255;28;20464;-80
2022/09/17 05:17:11;;;;;;;3.83;1.35;;;;;;;17.90;66.95;93001.19;5048715;28;20031;-81
2022/09/17 05:19:36;;;;;;;4.75;1.52;;;;;;;17.86;66.37;92976.19;5047353;28;20538;-80
2022/09/17 05:22:02;;;;;;;2.55;1.10;;;;;;;18.19;66.04;93004.00;5048164;28;20451;-81
2022/09/17 05:24:27;;;;;;;5.68;1.27;;;;;;;18.29;65.68;92998.66;5047337;28;20419;-80
2022/09/17 05:26:53;;;;;;;4.50;1.77;;;;;;;18.11;65.35;92949.41;5048759;28;20036;-80
2022/09/17 05:29:18;;;;;;;1.83;0.77;;;;;;;18.04;64.43;92960.13;5052293;28;20032;-78
2022/09/17 05:31:44;;;;;;;5.38;1.27;;;;;;;18.20;63.12;92952.50;5051607;28;20475;-80
2022/09/17 05:34:09;;;;;;;1.70;0.88;;;;;;;18.38;61.82;92985.59;5052576;28;20033;-79
2022/09/17 05:36:34;;;;;;;2.00;0.75;;;;;;;18.24;59.91;92971.34;5052139;28;20458;-80
2022/09/17 05:39:00;;;;;;;3.15;1.00;;;;;;;18.35;59.10;92969.44;5053374;28;20099;-80
2022/09/17 05:41:25;;;;;;;1.25;0.43;;;;;;;18.39;57.91;92972.91;5051860;28;20802;-79
2022/09/17 05:43:50;;;;;;;2.22;0.63;;;;;;;18.65;56.94;93004.09;5053278;28;20086;-79
2022/09/17 05:46:16;;;;;;;0.70;0.60;;;;;;;18.55;56.58;92988.69;5048791;28;20029;-79
2022/09/17 05:48:42;;;;;;;2.08;0.73;;;;;;;18.78;55.53;93018.78;5058098;28;20034;-79
2022/09/17 05:51:07;;;;;;;0.65;0.47;;;;;;;18.77;55.22;93018.00;5051614;28;20031;-79
2022/09/17 05:53:33;;;;;;;1.90;0.70;;;;;;;18.75;56.86;93006.06;5049071;28;20021;-79
2022/09/17 05:55:58;;;;;;;1.05;0.63;;;;;;;18.61;55.58;92982.56;5050078;28;20589;-79
2022/09/17 05:58:25;;;;;;;1.60;0.68;;;;;;;18.96;56.14;93006.09;5052505;28;20028;-79
2022/09/17 06:00:51;;;;;;;1.33;0.77;;;;;;;19.04;55.39;93014.94;5052676;28;20412;-79
2022/09/17 06:03:18;;;;;;;2.15;0.73;;;;;;;19.06;55.69;93018.03;5051699;28;20024;-79
2022/09/17 06:05:53;;;;;;;1.20;0.57;;;;;;;19.18;55.57;93012.25;5046146;28;20035;-79
2022/09/17 06:08:18;;;;;;;2.83;0.75;;;;;;;18.89;55.06;92981.84;5047406;28;20043;-79
2022/09/17 06:10:43;;;;;;;1.60;0.70;;;;;;;19.12;55.63;92995.69;5054737;28;20028;-79
2022/09/17 06:13:09;;;;;;;2.88;0.68;;;;;;;19.20;55.15;92999.94;5048190;28;20036;-79
2022/09/17 06:15:34;;;;;;;0.52;0.52;;;;;;;19.20;54.34;93008.03;5049448;28;20029;-80
2022/09/17 06:18:00;;;;;;;1.02;0.35;;;;;;;19.19;54.21;93011.09;5049316;28;20636;-79
2022/09/17 06:20:25;;;;;;;1.08;0.47;;;;;;;19.00;53.28;93009.56;5051260;28;20075;-79
2022/09/17 06:22:55;;;;;;;1.08;0.73;;;;;;;19.18;53.44;93041.88;5041836;28;20032;-79
2022/09/17 06:25:22;;;;;;;4.15;1.48;;;;;;;19.17;59.23;93073.47;5048125;28;20089;-79
2022/09/17 06:27:48;;;;;;;8.20;2.78;;;;;;;18.92;62.81;93063.84;5050780;28;20036;-81
2022/09/17 06:30:13;;;;;;;12.73;3.75;;;;;;;19.07;62.56;93066.13;5052118;28;20383;-79
2022/09/17 06:32:38;;;;;;;4.30;1.67;;;;;;;19.08;60.12;93083.06;5051117;28;20031;-78
2022/09/17 06:35:05;;;;;;;4.20;1.95;;;;;;;18.83;61.21;93075.72;5050782;28;20631;-79
2022/09/17 06:37:31;;;;;;;5.68;1.50;;;;;;;18.85;61.46;93105.75;5052366;28;20100;-79
2022/09/17 06:39:58;;;;;;;4.25;1.13;;;;;;;19.01;61.50;93110.03;5050462;28;20021;-79
2022/09/17 06:42:24;;;;;;;1.65;1.00;;;;;;;19.23;60.99;93114.28;5058641;28;20443;-79
2022/09/17 06:44:49;;;;;;;3.47;1.30;;;;;;;19.28;60.73;93078.84;5048907;28;20860;-77
2022/09/17 06:47:15;;;;;;;3.22;1.20;;;;;;;19.39;60.00;93060.75;5051904;28;20028;-78
2022/09/17 06:49:40;;;;;;;1.65;0.88;;;;;;;19.70;60.04;93067.31;5049599;28;20066;-79
2022/09/17 06:52:05;;;;;;;4.00;0.80;;;;;;;19.77;59.61;93071.91;5050981;28;20027;-78
2022/09/17 06:54:31;;;;;;;1.55;1.00;;;;;;;19.56;59.46;93043.03;5049522;28;20031;-79
2022/09/17 06:56:56;;;;;;;7.20;1.25;;;;;;;19.80;59.35;93073.84;5050998;28;20404;-79
2022/09/17 06:59:22;;;;;;;1.70;1.05;;;;;;;19.79;59.65;93048.03;5044477;28;20063;-79
2022/09/17 07:01:47;;;;;;;4.40;1.67;;;;;;;19.92;59.71;93063.41;5048379;28;20025;-78
2022/09/17 07:04:13;;;;;;;8.20;2.15;;;;;;;19.83;60.25;93038.00;5048864;28;20021;-79
2022/09/17 07:06:39;;;;;;;6.85;2.35;;;;;;;19.66;61.41;92986.38;5049567;28;20020;-79
2022/09/17 07:09:06;;;;;;;6.13;2.85;;;;;;;19.81;61.63;93002.53;5050009;28;20021;-79
2022/09/17 07:11:32;;;;;;;8.20;3.13;;;;;;;19.81;62.74;93002.53;5049699;28;20376;-79
2022/09/17 07:13:58;;;;;;;6.20;3.85;;;;;;;19.71;62.13;92969.03;5050410;28;20032;-79
2022/09/17 07:16:23;;;;;;;7.68;2.88;;;;;;;19.98;61.90;93007.09;5052102;28;20024;-78
2022/09/17 07:18:49;;;;;;;8.02;2.83;;;;;;;19.72;62.77;92924.72;5046430;28;20582;-78
2022/09/17 07:21:14;;;;;;;6.90;2.78;;;;;;;19.96;62.62;92955.44;5051000;28;20048;-79
2022/09/17 07:23:40;;;;;;;5.65;2.63;;;;;;;19.91;62.25;92942.34;5049751;28;20151;-79
2022/09/17 07:26:11;;;;;;;8.38;2.95;;;;;;;20.16;62.30;92972.69;5050100;28;20483;-79
2022/09/17 07:28:39;;;;;;;4.82;2.33;;;;;;;20.29;61.67;92983.88;5050579;28;20024;-78
2022/09/17 07:31:06;;;;;;;7.20;2.35;;;;;;;20.49;60.28;92993.75;5050048;28;20025;-80
2022/09/17 07:33:34;;;;;;;5.05;1.92;;;;;;;20.57;60.17;92992.56;5043851;28;20032;-78
2022/09/17 07:36:05;;;;;;;4.75;2.03;;;;;;;20.60;59.61;92983.66;5046120;28;20043;-80
2022/09/17 07:38:32;;;;;;;5.45;2.20;;;;;;;20.68;59.08;92986.34;5045634;28;20041;-80
2022/09/17 07:41:06;;;;;;;5.55;1.92;;;;;;;20.73;57.53;92991.31;5045087;28;20033;-79
2022/09/17 07:43:33;;;;;;;3.27;1.53;;;;;;;20.72;56.79;92979.75;5041388;28;20028;-80
2022/09/17 07:46:01;;;;;;;3.53;1.55;;;;;;;20.70;56.98;92951.56;5042435;28;20029;-79
2022/09/17 07:48:27;;;;;;;2.97;2.00;;;;;;;20.87;56.00;92981.22;5047836;28;20029;-79
2022/09/17 07:50:52;;;;;;;3.35;1.63;;;;;;;20.77;54.71;92976.63;5044656;28;20039;-78
2022/09/17 07:53:18;;;;;;;6.20;2.55;;;;;;;20.77;55.78;92976.63;5048044;28;20668;-79
2022/09/17 07:55:53;;;;;;;4.63;2.47;;;;;;;20.93;56.14;92973.41;5047224;28;20443;-79
2022/09/17 07:58:21;;;;;;;3.97;2.40;;;;;;;20.70;57.37;92951.56;5049497;28;20454;-80
2022/09/17 08:00:47;;;;;;;9.38;3.80;;;;;;;20.48;56.67;92915.84;5045690;28;20017;-78
2022/09/17 08:03:13;;;;;;;3.55;3.03;;;;;;;20.77;57.30;92970.44;5044389;28;20167;-80
2022/09/17 08:05:38;;;;;;;6.07;2.42;;;;;;;20.67;57.42;92982.09;5046667;28;20391;-80
2022/09/17 08:08:03;;;;;;;5.93;2.47;;;;;;;20.56;58.28;92958.63;5046391;28;20260;-79
2022/09/17 08:10:29;;;;;;;6.80;2.85;;;;;;;20.59;57.50;92955.13;5043087;28;20033;-78
2022/09/17 08:12:56;;;;;;;7.07;3.95;;;;;;;20.49;58.25;92945.16;5048787;28;20225;-79
2022/09/17 08:15:22;;;;;;;3.97;2.92;;;;;;;20.59;58.54;92954.34;5046035;28;20103;-80
2022/09/17 08:17:48;;;;;;;8.13;4.32;;;;;;;20.25;59.06;92908.28;5048254;28;20152;-79
2022/09/17 08:20:14;;;;;;;8.30;2.80;;;;;;;20.54;58.28;92970.97;5047173;28;20105;-80
2022/09/17 08:22:40;;;;;;;7.10;2.47;;;;;;;20.35;59.14;92934.44;5047504;28;20021;-79
2022/09/17 08:25:07;;;;;;;6.20;2.83;;;;;;;20.55;59.26;92970.59;5045094;28;20032;-79
2022/09/17 08:27:33;;;;;;;7.85;3.25;;;;;;;20.48;59.21;92937.47;5047454;28;20020;-80
2022/09/17 08:29:58;;;;;;;7.32;3.30;;;;;;;20.49;58.51;92933.56;5047974;28;20451;-79
2022/09/17 08:32:24;;;;;;;7.40;3.38;;;;;;;20.62;58.32;92956.28;5049149;28;20016;-79
2022/09/17 08:34:52;;;;;;;5.72;2.60;;;;;;;20.50;59.04;92941.28;5043560;28;20051;-80
2022/09/17 08:37:18;;;;;;;10.43;2.88;;;;;;;20.41;58.51;92927.47;5045500;28;20030;-79
2022/09/17 08:39:44;;;;;;;6.30;2.72;;;;;;;20.71;58.40;92947.72;5044454;28;20351;-79
2022/09/17 08:42:24;;;;;;;3.13;2.10;;;;;;;20.88;58.11;92969.22;5049763;28;20027;-79
2022/09/17 08:44:52;;;;;;;2.60;1.65;;;;;;;20.75;57.69;92924.13;5044466;28;20463;-80
2022/09/17 08:47:42;;;;;;;3.08;1.88;;;;;;;21.06;55.51;92950.16;5046291;28;20392;-79
2022/09/17 08:50:32;;;;;;;3.47;1.40;;;;;;;21.06;55.50;92925.84;5046139;28;20121;-78
2022/09/17 08:53:33;;;;;;;3.72;2.17;;;;;;;21.21;56.18;92950.81;5046740;28;20028;-81
2022/09/17 08:56:05;;;;;;;4.53;1.65;;;;;;;20.97;55.63;92909.31;5044272;28;20404;-80
2022/09/17 08:58:53;;;;;;;5.47;1.75;;;;;;;21.22;55.01;92939.56;5046046;28;20033;-81
2022/09/17 09:01:27;;;;;;;3.90;1.58;;;;;;;21.38;54.28;92949.84;5042326;28;20060;-81
2022/09/17 09:04:28;;;;;;;3.30;1.40;;;;;;;21.16;54.21;92908.75;5061054;28;20120;-80
2022/09/17 09:07:01;;;;;;;3.08;1.60;;;;;;;21.39;54.26;92952.16;5049466;28;20130;-80
2022/09/17 09:09:33;;;;;;;2.70;1.83;;;;;;;21.01;54.00;92891.13;5047930;28;20516;-81
2022/09/17 09:12:08;;;;;;;1.80;1.35;;;;;;;21.32;54.90;92936.00;5041663;28;20636;-82
2022/09/17 09:14:50;;;;;;;3.67;1.33;;;;;;;21.39;56.60;92956.81;5046621;28;20115;-80
2022/09/17 09:17:20;;;;;;;6.55;1.70;;;;;;;21.44;56.23;92953.66;5045053;28;20030;-81
2022/09/17 09:19:46;;;;;;;4.03;1.85;;;;;;;21.20;56.97;92924.94;5048459;28;20032;-80
2022/09/17 09:22:11;;;;;;;3.92;1.50;;;;;;;21.62;58.70;92985.97;5047488;28;20692;-80
2022/09/17 09:24:51;;;;;;;4.50;2.00;;;;;;;21.41;58.85;92957.19;5047325;28;20056;-81
2022/09/17 09:27:22;;;;;;;4.07;2.00;;;;;;;21.63;58.40;92999.09;5046469;28;20032;-81
2022/09/17 09:30:12;;;;;;;5.10;1.98;;;;;;;21.62;58.70;93000.25;5044652;28;20085;-80
2022/09/17 09:33:17;;;;;;;3.60;1.50;;;;;;;21.63;58.97;93009.16;5045952;28;20029;-80
2022/09/17 09:35:43;;;;;;;3.60;1.40;;;;;;;21.60;59.79;93012.66;5050009;28;20111;-80
2022/09/17 09:38:43;;;;;;;3.00;1.52;;;;;;;21.61;60.67;93014.22;5045986;28;20036;-81
2022/09/17 09:41:36;;;;;;;2.38;1.92;;;;;;;21.43;59.88;93004.28;5045240;28;20033;-80
2022/09/17 09:44:04;;;;;;;4.00;1.70;;;;;;;21.38;61.21;93018.25;5044779;28;20504;-80
2022/09/17 09:46:37;;;;;;;2.90;1.58;;;;;;;21.42;61.61;93032.50;5046562;28;20373;-80
2022/09/17 09:49:18;;;;;;;4.82;2.47;;;;;;;21.19;61.52;93029.59;5054097;28;20028;-81
2022/09/17 09:52:10;;;;;;;5.03;2.00;;;;;;;21.34;61.87;93044.56;5046534;28;20037;-81
2022/09/17 09:54:44;;;;;;;2.58;1.85;;;;;;;21.21;62.57;93059.72;5046573;28;20148;-79
2022/09/17 09:57:13;;;;;;;8.10;2.05;;;;;;;21.13;63.24;93074.44;5041333;28;20494;-80
2022/09/17 09:59:40;;;;;;;8.88;2.33;;;;;;;21.03;63.45;93032.81;5044203;28;20032;-80
2022/09/17 10:02:06;;;;;;;9.75;2.95;;;;;;;20.72;64.61;93001.34;5044255;28;20050;-81
2022/09/17 10:04:32;;;;;;;5.53;2.58;;;;;;;20.80;64.23;92993.97;5044593;28;20575;-81
2022/09/17 10:07:05;;;;;;;2.60;2.25;;;;;;;20.94;63.55;92986.53;5048847;28;20148;-80
2022/09/17 10:09:33;;;;;;;7.05;2.13;;;;;;;20.74;63.46;92917.97;5046649;28;20052;-80
2022/09/17 10:12:01;;;;;;;4.68;2.65;;;;;;;20.95;63.86;92935.97;5044009;28;20103;-80
2022/09/17 10:14:29;;;;;;;5.97;2.25;;;;;;;20.73;63.84;92929.19;5045919;28;20720;-81
2022/09/17 10:17:15;;;;;;;9.45;3.25;;;;;;;20.71;64.77;92926.09;5063522;28;20036;-80
2022/09/17 10:19:42;;;;;;;4.68;2.88;;;;;;;20.54;64.62;92898.03;5050562;28;20037;-80
2022/09/17 10:22:32;;;;;;;6.75;2.90;;;;;;;20.58;64.97;92898.81;5051388;28;20136;-81
2022/09/17 10:24:59;;;;;;;4.10;2.47;;;;;;;20.38;65.34;92881.59;5052341;28;20107;-81
2022/09/17 10:27:25;;;;;;;5.28;2.90;;;;;;;20.39;63.82;92885.81;5049782;28;20028;-80
2022/09/17 10:29:56;;;;;;;5.65;3.90;;;;;;;19.90;64.85;92870.66;5052061;28;20035;-80
2022/09/17 10:32:22;;;;;;;3.53;1.45;;;;;;;20.07;62.31;92908.34;5047387;28;20070;-79
2022/09/17 10:35:04;;;;;;;4.72;1.73;;;;;;;20.21;64.56;92923.72;5047693;28;20564;-80
2022/09/17 10:37:52;;;;;;;3.63;1.67;;;;;;;20.09;62.48;92883.69;5049741;28;20496;-79
2022/09/17 10:40:17;;;;;;;3.00;1.73;;;;;;;20.17;64.00;92882.50;5044220;28;20033;-81
2022/09/17 10:43:10;;;;;;;6.78;2.70;;;;;;;19.87;64.95;92863.38;5050198;28;20090;-81
2022/09/17 10:45:37;;;;;;;4.00;2.45;;;;;;;20.02;65.92;92871.00;5049394;28;20064;-81
2022/09/17 10:48:03;;;;;;;5.43;2.22;;;;;;;19.78;65.79;92844.16;5042305;28;20039;-80
2022/09/17 10:50:31;;;;;;;4.40;2.35;;;;;;;19.90;66.20;92824.78;5048593;28;20033;-81
2022/09/17 10:53:01;;;;;;;3.08;1.90;;;;;;;19.71;65.43;92832.22;5052374;28;20028;-80
2022/09/17 10:55:37;;;;;;;4.38;1.60;;;;;;;19.85;65.59;92857.63;5050273;28;20081;-81
2022/09/17 10:58:08;;;;;;;4.93;2.60;;;;;;;19.91;65.58;92859.47;5048391;28;20040;-80
2022/09/17 11:01:24;;;;;;;6.00;2.08;;;;;;;19.89;66.03;92890.72;5046701;28;20025;-80
2022/09/17 11:04:05;;;;;;;2.83;1.90;;;;;;;19.89;66.09;92872.63;5033857;28;20045;-80
2022/09/17 11:06:55;;;;;;;2.28;1.30;;;;;;;19.90;64.80;92901.09;5047710;28;20044;-80
2022/09/17 11:09:26;;;;;;;2.70;1.55;;;;;;;19.81;66.37;92889.22;5044320;28;20013;-81
2022/09/17 11:12:01;;;;;;;4.97;2.60;;;;;;;19.63;67.63;92911.66;5053127;28;20666;-80
2022/09/17 11:14:36;;;;;;;8.65;2.42;;;;;;;19.56;67.77;92883.94;5045151;28;20028;-81
2022/09/17 11:17:08;;;;;;;3.13;2.03;;;;;;;19.56;68.92;92917.06;5047248;28;20028;-81
2022/09/17 11:19:52;;;;;;;5.85;2.45;;;;;;;19.57;68.59;92915.13;5046062;28;20389;-80
2022/09/17 11:22:30;;;;;;;4.50;1.67;;;;;;;19.29;68.28;92837.78;5045808;28;20426;-80
2022/09/17 11:25:20;;;;;;;4.47;1.65;;;;;;;19.40;68.50;92889.75;5078030;28;20041;-80
2022/09/17 11:27:56;;;;;;;4.10;1.80;;;;;;;19.58;68.54;92909.34;5043654;28;20132;-80
2022/09/17 11:30:23;;;;;;;6.82;1.60;;;;;;;19.54;66.97;92889.72;5044849;28;20077;-81
2022/09/17 11:33:15;;;;;;;2.72;1.50;;;;;;;19.75;65.81;92895.00;5044988;28;20020;-81
2022/09/17 11:35:48;;;;;;;2.92;1.60;;;;;;;19.80;66.44;92911.97;5043029;28;20093;-81
2022/09/17 11:38:18;;;;;;;3.10;1.95;;;;;;;19.46;67.61;92836.19;5040041;28;20025;-80
2022/09/17 11:40:49;;;;;;;2.55;1.65;;;;;;;19.69;65.86;92872.31;5045009;28;20031;-80
2022/09/17 11:43:27;;;;;;;4.72;1.88;;;;;;;19.87;67.18;92925.41;5043392;28;20031;-80
2022/09/17 11:46:14;;;;;;;4.30;2.03;;;;;;;19.80;66.84;92914.69;5052252;28;20116;-80
2022/09/17 11:48:50;;;;;;;5.03;2.72;;;;;;;19.66;66.98;92891.22;5045183;28;20032;-80
2022/09/17 11:51:23;;;;;;;3.88;1.63;;;;;;;19.53;67.04;92853.13;5040351;28;20111;-81